Time;durP1;ratioP1;P1;durP2;ratioP2;P2;SDS_P1;SDS_P2;PMS_P1;PMS_P2;Temp;Humidity;BMP_temperature;BMP_pressure;BME280_temperature;BME280_humidity;BME280_pressure;Samples;Min_cycle;Max_cycle;Signal;HPM_P1;HPM_P2
2024/01/29 00:00:30;;;;;;;;;;;21.20;32.70;;;;;;5091235;28;19927;-70
2024/01/29 00:02:56;;;;;;;;;;;21.30;32.70;;;;;;5090762;28;19920;-70
2024/01/29 00:05:21;;;;;;;;;;;21.40;32.60;;;;;;5091339;28;19978;-70
2024/01/29 00:07:47;;;;;;;;;;;21.40;32.50;;;;;;5091354;28;20362;-69
2024/01/29 00:10:12;;;;;;;;;;;21.50;32.40;;;;;;5091684;28;19974;-69
2024/01/29 00:12:38;;;;;;;;;;;21.60;32.30;;;;;;5073351;28;20073;-69
2024/01/29 00:15:04;;;;;;;;;;;21.60;32.30;;;;;;5073946;28;19920;-70
2024/01/29 00:17:30;;;;;;;;;;;21.60;32.20;;;;;;5091519;28;19920;-70
2024/01/29 00:19:55;;;;;;;;;;;21.70;32.20;;;;;;5073274;28;20195;-69
2024/01/29 00:22:21;;;;;;;;;;;21.70;32.10;;;;;;5073525;28;19927;-70
2024/01/29 00:24:46;;;;;;;;;;;21.70;32.10;;;;;;5091618;28;20386;-72
2024/01/29 00:27:12;;;;;;;;;;;21.70;32.10;;;;;;5090972;28;19924;-70
2024/01/29 00:29:37;;;;;;;;;;;21.70;32.20;;;;;;5091495;28;19921;-70
2024/01/29 00:32:03;;;;;;;;;;;21.70;32.20;;;;;;5091333;28;19925;-70
2024/01/29 00:34:28;;;;;;;;;;;21.70;32.20;;;;;;5073855;28;19924;-68
2024/01/29 00:36:57;;;;;;;;;;;21.60;32.30;;;;;;5073402;28;20024;-69
2024/01/29 00:39:22;;;;;;;;;;;21.50;32.30;;;;;;5073254;28;19920;-67
2024/01/29 00:41:48;;;;;;;;;;;21.50;32.30;;;;;;5091489;28;20014;-68
2024/01/29 00:44:14;;;;;;;;;;;21.50;32.40;;;;;;5073304;28;19920;-68
2024/01/29 00:46:39;;;;;;;;;;;21.50;32.50;;;;;;5107141;28;20518;-67
2024/01/29 00:49:05;;;;;;;;;;;21.50;32.50;;;;;;5091056;28;20371;-68
2024/01/29 00:51:30;;;;;;;;;;;21.40;32.40;;;;;;5072965;28;19981;-67
2024/01/29 00:53:56;;;;;;;;;;;21.50;32.40;;;;;;5073415;28;19924;-67
2024/01/29 00:56:24;;;;;;;;;;;21.40;32.40;;;;;;5073209;28;19920;-67
2024/01/29 00:58:50;;;;;;;;;;;21.40;32.40;;;;;;5073094;28;19973;-68
2024/01/29 01:01:15;;;;;;;;;;;21.40;32.50;;;;;;5073478;28;20331;-69
2024/01/29 01:03:41;;;;;;;;;;;21.40;32.40;;;;;;5073225;28;19920;-68
2024/01/29 01:06:08;;;;;;;;;;;21.40;32.40;;;;;;5072711;28;19920;-68
2024/01/29 01:08:34;;;;;;;;;;;21.40;32.40;;;;;;5072880;28;20283;-67
2024/01/29 01:11:03;;;;;;;;;;;21.40;32.30;;;;;;5073337;28;19920;-68
2024/01/29 01:13:29;;;;;;;;;;;21.40;32.30;;;;;;5092920;28;20410;-68
2024/01/29 01:15:54;;;;;;;;;;;21.40;32.40;;;;;;5095007;28;19920;-69
2024/01/29 01:18:22;;;;;;;;;;;21.40;32.40;;;;;;5095175;28;19920;-67
2024/01/29 01:20:49;;;;;;;;;;;21.50;32.30;;;;;;5094520;28;19930;-67
2024/01/29 01:23:14;;;;;;;;;;;21.50;32.30;;;;;;5076316;28;19920;-67
2024/01/29 01:25:40;;;;;;;;;;;21.50;32.20;;;;;;5077041;28;19920;-67
2024/01/29 01:28:06;;;;;;;;;;;21.50;32.30;;;;;;5076239;28;19973;-67
2024/01/29 01:30:31;;;;;;;;;;;21.40;32.30;;;;;;5094759;28;20422;-67
2024/01/29 01:32:57;;;;;;;;;;;21.40;32.40;;;;;;5076722;28;20016;-67
2024/01/29 01:35:23;;;;;;;;;;;21.40;32.40;;;;;;5094732;28;20440;-68
2024/01/29 01:37:48;;;;;;;;;;;21.40;32.40;;;;;;5077224;28;19925;-67
2024/01/29 01:40:14;;;;;;;;;;;21.50;32.30;;;;;;5076558;28;19920;-67
2024/01/29 01:42:41;;;;;;;;;;;21.50;32.20;;;;;;5094886;28;19924;-68
2024/01/29 01:45:09;;;;;;;;;;;21.60;32.30;;;;;;5094709;28;19924;-67
2024/01/29 01:47:35;;;;;;;;;;;21.60;32.20;;;;;;5076419;28;19924;-67
2024/01/29 01:50:02;;;;;;;;;;;21.60;32.10;;;;;;5076483;28;19920;-68
2024/01/29 01:52:27;;;;;;;;;;;21.60;32.10;;;;;;5076494;28;20403;-68
2024/01/29 01:54:53;;;;;;;;;;;21.60;32.10;;;;;;5094778;28;19974;-67
2024/01/29 01:57:19;;;;;;;;;;;21.60;32.00;;;;;;5095017;28;19924;-67
2024/01/29 01:59:45;;;;;;;;;;;21.60;32.00;;;;;;5094690;28;20062;-67
2024/01/29 02:02:10;;;;;;;;;;;21.70;32.10;;;;;;5076428;28;20389;-68
2024/01/29 02:04:36;;;;;;;;;;;21.60;32.00;;;;;;5076205;28;19978;-67
2024/01/29 02:07:04;;;;;;;;;;;21.60;32.10;;;;;;5109243;28;20379;-67
2024/01/29 02:09:30;;;;;;;;;;;21.60;32.00;;;;;;5075901;28;20010;-67
2024/01/29 02:11:56;;;;;;;;;;;21.60;32.10;;;;;;5076118;28;20015;-67
2024/01/29 02:14:21;;;;;;;;;;;21.60;32.10;;;;;;5076292;28;20099;-68
2024/01/29 02:16:47;;;;;;;;;;;21.60;32.90;;;;;;5094235;28;19921;-68
2024/01/29 02:19:15;;;;;;;;;;;21.60;32.20;;;;;;5076390;28;20274;-68
2024/01/29 02:21:40;;;;;;;;;;;21.60;32.20;;;;;;5093802;28;20326;-67
2024/01/29 02:24:06;;;;;;;;;;;21.60;32.20;;;;;;5093228;28;19926;-69
2024/01/29 02:26:31;;;;;;;;;;;21.50;32.10;;;;;;5075875;28;19966;-68
2024/01/29 02:28:57;;;;;;;;;;;21.60;32.20;;;;;;5075356;28;20371;-69
2024/01/29 02:31:23;;;;;;;;;;;21.60;32.20;;;;;;5075506;28;19924;-68
2024/01/29 02:33:49;;;;;;;;;;;21.50;32.20;;;;;;5093523;28;20284;-68
2024/01/29 02:36:14;;;;;;;;;;;21.50;32.10;;;;;;5094024;28;20025;-67
2024/01/29 02:38:40;;;;;;;;;;;21.50;32.10;;;;;;5075807;28;19931;-69
2024/01/29 02:41:06;;;;;;;;;;;21.50;32.20;;;;;;5075170;28;19920;-68
2024/01/29 02:43:31;;;;;;;;;;;21.50;32.20;;;;;;5075893;28;19920;-67
2024/01/29 02:46:03;;;;;;;;;;;21.50;32.10;;;;;;5109299;28;19964;-68
2024/01/29 02:48:28;;;;;;;;;;;21.50;32.10;;;;;;5109107;28;19928;-69
2024/01/29 02:50:54;;;;;;;;;;;21.50;32.20;;;;;;5075403;28;20272;-67
2024/01/29 02:53:19;;;;;;;;;;;21.50;32.20;;;;;;5093492;28;20640;-69
2024/01/29 02:55:45;;;;;;;;;;;21.50;32.10;;;;;;5093820;28;19966;-68
2024/01/29 02:58:10;;;;;;;;;;;21.50;32.10;;;;;;5093438;28;19924;-68
2024/01/29 03:00:36;;;;;;;;;;;21.50;32.00;;;;;;5093315;28;19926;-67
2024/01/29 03:03:01;;;;;;;;;;;21.50;32.10;;;;;;5074985;28;20294;-68
2024/01/29 03:05:27;;;;;;;;;;;21.50;32.10;;;;;;5093458;28;19965;-68
2024/01/29 03:07:53;;;;;;;;;;;21.50;32.10;;;;;;5074662;28;20010;-68
2024/01/29 03:10:18;;;;;;;;;;;21.50;32.00;;;;;;5093323;28;19927;-68
2024/01/29 03:12:44;;;;;;;;;;;21.60;32.00;;;;;;5074168;28;19971;-68
2024/01/29 03:15:09;;;;;;;;;;;21.70;32.00;;;;;;5092881;28;19920;-68
2024/01/29 03:17:35;;;;;;;;;;;21.70;32.00;;;;;;5074795;28;20414;-68
2024/01/29 03:20:00;;;;;;;;;;;21.70;31.90;;;;;;5074266;28;20386;-68
2024/01/29 03:22:26;;;;;;;;;;;21.80;31.80;;;;;;5074121;28;19967;-68
2024/01/29 03:24:51;;;;;;;;;;;21.80;31.70;;;;;;5092201;28;20019;-68
2024/01/29 03:27:17;;;;;;;;;;;21.90;31.70;;;;;;5073943;28;20367;-68
2024/01/29 03:29:42;;;;;;;;;;;21.90;31.60;;;;;;5092087;28;19955;-68
2024/01/29 03:32:11;;;;;;;;;;;22.00;31.60;;;;;;5107939;28;19924;-68
2024/01/29 03:34:40;;;;;;;;;;;22.00;31.60;;;;;;5108129;28;20286;-68
2024/01/29 03:37:06;;;;;;;;;;;22.00;31.50;;;;;;5108101;28;19920;-68
2024/01/29 03:39:34;;;;;;;;;;;22.00;31.40;;;;;;5108134;28;20326;-68
2024/01/29 03:41:59;;;;;;;;;;;22.00;31.40;;;;;;5092210;28;19919;-68
2024/01/29 03:44:25;;;;;;;;;;;22.00;31.50;;;;;;5073963;28;20006;-68
2024/01/29 03:46:51;;;;;;;;;;;22.00;31.40;;;;;;5107719;28;19920;-67
2024/01/29 03:49:16;;;;;;;;;;;22.00;31.50;;;;;;5091721;28;19920;-68
2024/01/29 03:51:42;;;;;;;;;;;21.90;31.40;;;;;;5091642;28;20170;-68
2024/01/29 03:54:07;;;;;;;;;;;21.90;31.50;;;;;;5073447;28;20440;-68
2024/01/29 03:56:33;;;;;;;;;;;21.90;31.50;;;;;;5091804;28;19928;-68
2024/01/29 03:58:58;;;;;;;;;;;21.90;31.60;;;;;;5073363;28;20432;-71
2024/01/29 04:01:24;;;;;;;;;;;21.80;31.60;;;;;;5091371;28;19919;-68
2024/01/29 04:03:50;;;;;;;;;;;21.80;31.60;;;;;;5091067;28;19920;-68
2024/01/29 04:06:15;;;;;;;;;;;21.80;31.60;;;;;;5107056;28;20303;-68
2024/01/29 04:08:41;;;;;;;;;;;21.70;31.60;;;;;;5090842;28;19927;-67
2024/01/29 04:11:06;;;;;;;;;;;21.70;31.70;;;;;;5091072;28;20327;-67
2024/01/29 04:13:34;;;;;;;;;;;21.70;31.70;;;;;;5091101;28;19974;-68
2024/01/29 04:15:59;;;;;;;;;;;21.70;31.70;;;;;;5091557;28;19920;-68
2024/01/29 04:18:27;;;;;;;;;;;21.60;31.70;;;;;;5091210;28;19920;-68
2024/01/29 04:20:53;;;;;;;;;;;21.60;31.80;;;;;;5091187;28;20467;-68
2024/01/29 04:23:19;;;;;;;;;;;21.60;31.80;;;;;;5072806;28;19924;-68
2024/01/29 04:25:44;;;;;;;;;;;21.60;31.80;;;;;;5090873;28;19931;-68
2024/01/29 04:28:10;;;;;;;;;;;21.60;31.80;;;;;;5090788;28;19931;-69
2024/01/29 04:30:36;;;;;;;;;;;21.60;31.80;;;;;;5106189;28;19926;-68
2024/01/29 04:33:01;;;;;;;;;;;21.60;31.80;;;;;;5090936;28;19974;-68
2024/01/29 04:35:27;;;;;;;;;;;21.60;31.80;;;;;;5073958;28;19924;-68
2024/01/29 04:37:52;;;;;;;;;;;21.60;31.80;;;;;;5074279;28;19924;-67
2024/01/29 04:40:18;;;;;;;;;;;21.60;31.80;;;;;;5073823;28;19923;-69
2024/01/29 04:42:43;;;;;;;;;;;21.60;31.80;;;;;;5073653;28;19927;-68
2024/01/29 04:45:09;;;;;;;;;;;21.60;31.80;;;;;;5091583;28;20303;-68
2024/01/29 04:47:34;;;;;;;;;;;21.60;31.80;;;;;;5092163;28;19920;-68
2024/01/29 04:50:00;;;;;;;;;;;21.60;31.80;;;;;;5111569;28;20167;-68
2024/01/29 04:52:25;;;;;;;;;;;21.70;31.90;;;;;;5095691;28;20228;-68
2024/01/29 04:54:54;;;;;;;;;;;21.60;31.80;;;;;;5077883;28;19927;-68
2024/01/29 04:57:22;;;;;;;;;;;21.60;31.80;;;;;;5078094;28;19920;-68
2024/01/29 04:59:47;;;;;;;;;;;21.60;31.80;;;;;;5111658;28;19920;-68
2024/01/29 05:02:13;;;;;;;;;;;21.60;31.80;;;;;;5077463;28;19927;-68
2024/01/29 05:04:38;;;;;;;;;;;21.60;31.80;;;;;;5111437;28;19924;-68
2024/01/29 05:07:04;;;;;;;;;;;21.60;31.80;;;;;;5077242;28;20294;-67
2024/01/29 05:09:29;;;;;;;;;;;21.60;31.80;;;;;;5111350;28;19994;-68
2024/01/29 05:11:55;;;;;;;;;;;21.60;31.80;;;;;;5110834;28;20009;-68
2024/01/29 05:14:20;;;;;;;;;;;21.60;31.80;;;;;;5077196;28;19920;-68
2024/01/29 05:16:46;;;;;;;;;;;21.60;31.80;;;;;;5111165;28;19920;-68
2024/01/29 05:19:11;;;;;;;;;;;21.60;31.80;;;;;;5095053;28;20287;-68
2024/01/29 05:21:37;;;;;;;;;;;21.60;31.80;;;;;;5076814;28;19924;-68
2024/01/29 05:24:03;;;;;;;;;;;21.60;31.80;;;;;;5094591;28;19920;-68
2024/01/29 05:26:28;;;;;;;;;;;21.60;31.80;;;;;;5094480;28;19924;-68
2024/01/29 05:28:54;;;;;;;;;;;21.60;31.80;;;;;;5094354;28;19977;-68
2024/01/29 05:31:19;;;;;;;;;;;21.60;31.70;;;;;;5094099;28;20027;-68
2024/01/29 05:33:45;;;;;;;;;;;21.60;31.80;;;;;;5076405;28;19920;-68
2024/01/29 05:36:10;;;;;;;;;;;21.60;31.70;;;;;;5095432;28;19920;-67
2024/01/29 05:38:36;;;;;;;;;;;21.60;31.70;;;;;;5076966;28;19920;-68
2024/01/29 05:41:01;;;;;;;;;;;21.60;31.70;;;;;;5094817;28;19924;-68
2024/01/29 05:43:27;;;;;;;;;;;21.60;31.70;;;;;;5110635;28;20015;-68
2024/01/29 05:45:52;;;;;;;;;;;21.60;31.70;;;;;;5110710;28;20325;-68
2024/01/29 05:48:18;;;;;;;;;;;21.60;31.70;;;;;;5076791;28;19931;-68
2024/01/29 05:50:44;;;;;;;;;;;21.60;31.70;;;;;;5094522;28;20181;-68
2024/01/29 05:53:10;;;;;;;;;;;21.60;31.70;;;;;;5076811;28;19978;-68
2024/01/29 05:55:36;;;;;;;;;;;21.60;31.70;;;;;;5094700;28;19923;-68
2024/01/29 05:58:01;;;;;;;;;;;21.60;31.80;;;;;;5076285;28;20405;-68
2024/01/29 06:00:27;;;;;;;;;;;21.60;31.80;;;;;;5076372;28;20326;-68
2024/01/29 06:02:52;;;;;;;;;;;21.60;31.70;;;;;;5093714;28;19955;-68
2024/01/29 06:05:18;;;;;;;;;;;21.60;31.80;;;;;;5076131;28;20294;-68
2024/01/29 06:07:46;;;;;;;;;;;21.70;31.80;;;;;;5093986;28;19920;-68
2024/01/29 06:10:12;;;;;;;;;;;21.60;31.80;;;;;;5075741;28;19921;-67
2024/01/29 06:12:38;;;;;;;;;;;21.60;31.80;;;;;;5075436;28;19928;-68
2024/01/29 06:15:04;;;;;;;;;;;21.60;31.80;;;;;;5093866;28;19966;-68
2024/01/29 06:17:30;;;;;;;;;;;21.60;31.80;;;;;;5076090;28;20394;-68
2024/01/29 06:19:55;;;;;;;;;;;21.60;31.80;;;;;;5109431;28;19920;-68
2024/01/29 06:22:21;;;;;;;;;;;21.60;31.80;;;;;;5075831;28;19959;-68
2024/01/29 06:24:46;;;;;;;;;;;21.60;31.80;;;;;;5075337;28;20379;-68
2024/01/29 06:27:12;;;;;;;;;;;21.60;31.80;;;;;;5074100;28;19928;-68
2024/01/29 06:29:37;;;;;;;;;;;21.60;31.80;;;;;;5091851;28;19932;-67
2024/01/29 06:32:04;;;;;;;;;;;21.50;32.00;;;;;;5093193;28;20023;-67
2024/01/29 06:34:31;;;;;;;;;;;21.50;32.20;;;;;;5092719;28;20371;-68
2024/01/29 06:36:57;;;;;;;;;;;21.50;32.30;;;;;;5075680;28;19927;-67
2024/01/29 06:39:24;;;;;;;;;;;21.70;32.40;;;;;;5092562;28;19920;-67
2024/01/29 06:41:50;;;;;;;;;;;21.90;32.40;;;;;;5075415;28;19926;-66
2024/01/29 06:44:15;;;;;;;;;;;22.30;32.10;;;;;;5074754;28;20057;-67
2024/01/29 06:46:41;;;;;;;;;;;22.70;31.80;;;;;;5072775;28;20007;-67
2024/01/29 06:49:06;;;;;;;;;;;22.90;31.20;;;;;;5107909;28;20374;-67
2024/01/29 06:51:32;;;;;;;;;;;23.20;30.60;;;;;;5092008;28;19938;-66
2024/01/29 06:53:58;;;;;;;;;;;23.40;30.00;;;;;;5093179;28;20151;-67
2024/01/29 06:56:24;;;;;;;;;;;23.50;29.80;;;;;;5073369;28;19972;-67
2024/01/29 06:58:49;;;;;;;;;;;23.60;29.50;;;;;;5102462;28;19965;-67
2024/01/29 07:01:20;;;;;;;;;;;23.80;29.30;;;;;;5075608;28;19964;-66
2024/01/29 07:03:45;;;;;;;;;;;23.90;29.10;;;;;;5088515;28;19931;-67
2024/01/29 07:06:11;;;;;;;;;;;23.90;29.00;;;;;;5058256;28;20156;-66
2024/01/29 07:08:36;;;;;;;;;;;23.90;29.00;;;;;;5081841;28;19923;-67
2024/01/29 07:11:02;;;;;;;;;;;24.00;29.30;;;;;;5066572;28;20394;-67
2024/01/29 07:13:28;;;;;;;;;;;24.10;29.40;;;;;;5061759;28;19924;-67
2024/01/29 07:15:56;;;;;;;;;;;24.10;29.60;;;;;;5086202;28;19966;-67
2024/01/29 07:18:22;;;;;;;;;;;24.10;29.80;;;;;;5060432;28;19925;-66
2024/01/29 07:20:49;;;;;;;;;;;24.20;29.80;;;;;;5078274;28;20346;-67
2024/01/29 07:23:15;;;;;;;;;;;24.30;29.70;;;;;;5064981;28;20127;-66
2024/01/29 07:25:40;;;;;;;;;;;24.50;29.60;;;;;;5065961;28;20003;-67
2024/01/29 07:28:06;;;;;;;;;;;24.60;29.50;;;;;;5071176;28;19932;-66
2024/01/29 07:30:32;;;;;;;;;;;24.70;29.30;;;;;;5049486;28;19927;-68
2024/01/29 07:32:58;;;;;;;;;;;24.70;29.40;;;;;;5084745;28;19927;-68
2024/01/29 07:35:23;;;;;;;;;;;24.80;29.40;;;;;;5084112;28;20334;-68
2024/01/29 07:37:49;;;;;;;;;;;24.80;29.40;;;;;;5071928;28;19924;-68
2024/01/29 07:40:14;;;;;;;;;;;24.80;29.30;;;;;;5090520;27;19927;-67
2024/01/29 07:42:40;;;;;;;;;;;24.80;29.30;;;;;;5076091;27;19976;-65
2024/01/29 07:45:06;;;;;;;;;;;24.80;29.20;;;;;;5083522;28;20363;-63
2024/01/29 07:47:31;;;;;;;;;;;24.90;29.00;;;;;;5098411;27;20020;-63
2024/01/29 07:49:57;;;;;;;;;;;24.90;28.90;;;;;;5096775;27;19954;-64
2024/01/29 07:52:22;;;;;;;;;;;24.80;29.00;;;;;;5112926;27;19931;-68
2024/01/29 07:54:48;;;;;;;;;;;24.80;29.20;;;;;;5099627;27;19924;-67
2024/01/29 07:57:13;;;;;;;;;;;24.80;29.30;;;;;;5112843;27;19920;-67
2024/01/29 07:59:40;;;;;;;;;;;24.70;29.40;;;;;;5079008;28;19920;-69
2024/01/29 08:02:09;;;;;;;;;;;24.90;29.40;;;;;;5094396;27;19924;-67
2024/01/29 08:04:34;;;;;;;;;;;25.00;29.30;;;;;;5075236;28;19930;-68
2024/01/29 08:07:01;;;;;;;;;;;25.20;29.20;;;;;;5090680;28;19927;-67
2024/01/29 08:09:26;;;;;;;;;;;25.20;29.00;;;;;;5088682;28;20228;-67
2024/01/29 08:11:52;;;;;;;;;;;25.30;29.30;;;;;;5110463;27;20554;-74
2024/01/29 08:14:17;;;;;;;;;;;25.30;28.80;;;;;;5074698;28;19950;-68
2024/01/29 08:16:43;;;;;;;;;;;25.40;28.90;;;;;;5108812;27;19972;-66
2024/01/29 08:19:08;;;;;;;;;;;25.40;28.90;;;;;;5098279;28;19931;-65
2024/01/29 08:21:34;;;;;;;;;;;25.40;29.00;;;;;;5075699;28;19928;-68
2024/01/29 08:24:00;;;;;;;;;;;25.60;29.00;;;;;;5098311;27;19924;-68
2024/01/29 08:26:25;;;;;;;;;;;25.80;28.90;;;;;;5078781;28;19920;-68
2024/01/29 08:28:51;;;;;;;;;;;26.00;28.70;;;;;;5101132;27;19972;-69
2024/01/29 08:31:16;;;;;;;;;;;26.00;28.80;;;;;;5102950;27;19927;-67
2024/01/29 08:33:42;;;;;;;;;;;26.10;28.90;;;;;;5104199;27;19915;-67
2024/01/29 08:36:08;;;;;;;;;;;26.20;28.90;;;;;;5084942;27;20350;-68
2024/01/29 08:38:36;;;;;;;;;;;26.40;28.70;;;;;;5104168;27;19966;-67
2024/01/29 08:41:03;;;;;;;;;;;26.50;28.70;;;;;;5115683;27;20232;-68
2024/01/29 08:43:28;;;;;;;;;;;26.70;28.60;;;;;;5083029;28;19920;-69
2024/01/29 08:45:54;;;;;;;;;;;26.80;28.50;;;;;;5086822;28;20299;-70
2024/01/29 08:48:19;;;;;;;;;;;26.90;28.50;;;;;;5082568;28;19934;-70
2024/01/29 08:50:45;;;;;;;;;;;26.90;28.40;;;;;;5114223;27;20397;-70
2024/01/29 08:53:10;;;;;;;;;;;26.90;28.40;;;;;;5098621;27;19923;-70
2024/01/29 08:55:36;;;;;;;;;;;26.90;28.40;;;;;;5084283;27;19923;-71
2024/01/29 08:58:01;;;;;;;;;;;26.80;28.50;;;;;;5113499;27;19969;-70
2024/01/29 09:00:27;;;;;;;;;;;26.70;28.50;;;;;;5101384;27;19919;-71
2024/01/29 09:02:53;;;;;;;;;;;26.50;28.60;;;;;;5078375;28;20223;-70
2024/01/29 09:05:18;;;;;;;;;;;26.30;28.70;;;;;;5104639;27;19980;-70
2024/01/29 09:07:44;;;;;;;;;;;26.20;29.00;;;;;;5097200;27;20435;-70
2024/01/29 09:10:12;;;;;;;;;;;26.00;28.90;;;;;;5100348;27;20375;-73
2024/01/29 09:12:38;;;;;;;;;;;25.90;29.00;;;;;;5086453;27;20219;-71
2024/01/29 09:15:04;;;;;;;;;;;25.80;29.20;;;;;;5120289;27;20652;-69
2024/01/29 09:17:30;;;;;;;;;;;25.60;29.20;;;;;;5083064;27;19916;-71
2024/01/29 09:19:59;;;;;;;;;;;25.50;29.30;;;;;;5114344;27;20143;-70
2024/01/29 09:22:24;;;;;;;;;;;25.50;29.30;;;;;;5099356;27;19920;-71
2024/01/29 09:24:50;;;;;;;;;;;25.40;29.40;;;;;;5084334;28;19924;-71
2024/01/29 09:27:16;;;;;;;;;;;25.40;29.50;;;;;;5082915;28;20394;-71
2024/01/29 09:29:42;;;;;;;;;;;25.40;29.50;;;;;;5102062;27;19976;-71
2024/01/29 09:32:11;;;;;;;;;;;25.50;29.50;;;;;;5114582;27;20381;-71
2024/01/29 09:34:36;;;;;;;;;;;25.60;29.50;;;;;;5080475;27;19960;-68
2024/01/29 09:37:02;;;;;;;;;;;25.70;29.40;;;;;;5096024;27;19962;-71
2024/01/29 09:39:27;;;;;;;;;;;25.70;29.20;;;;;;5074346;27;19924;-69
2024/01/29 09:41:57;;;;;;;;;;;25.80;29.30;;;;;;5102527;27;19974;-69
2024/01/29 09:44:22;;;;;;;;;;;25.80;29.30;;;;;;5081313;27;20011;-70
2024/01/29 09:46:48;;;;;;;;;;;25.90;29.30;;;;;;5113620;27;20454;-69
2024/01/29 09:49:14;;;;;;;;;;;25.90;29.30;;;;;;5099786;27;19928;-66
2024/01/29 09:51:40;;;;;;;;;;;25.90;29.30;;;;;;5079717;27;19929;-68
2024/01/29 09:54:05;;;;;;;;;;;25.90;29.30;;;;;;5093776;27;19923;-68
2024/01/29 09:56:31;;;;;;;;;;;25.80;29.30;;;;;;5103635;27;19924;-69
2024/01/29 09:58:56;;;;;;;;;;;25.70;30.00;;;;;;5087043;28;20351;-68
2024/01/29 10:01:23;;;;;;;;;;;25.60;29.40;;;;;;5100132;27;19924;-68
2024/01/29 10:03:49;;;;;;;;;;;25.60;29.60;;;;;;5081454;27;19934;-71
2024/01/29 10:06:15;;;;;;;;;;;25.50;30.20;;;;;;5085237;27;20117;-68
2024/01/29 10:08:46;;;;;;;;;;;25.40;29.70;;;;;;5077152;28;19924;-68
2024/01/29 10:11:12;;;;;;;;;;;25.30;29.80;;;;;;5085585;27;20343;-69
2024/01/29 10:13:37;;;;;;;;;;;25.20;29.90;;;;;;5094785;28;20016;-70
2024/01/29 10:16:03;;;;;;;;;;;25.10;30.00;;;;;;5076682;27;20222;-70
2024/01/29 10:18:30;;;;;;;;;;;25.00;30.00;;;;;;5078664;28;19927;-70
2024/01/29 10:20:59;;;;;;;;;;;25.00;30.00;;;;;;5083547;27;19923;-69
2024/01/29 10:23:28;;;;;;;;;;;25.00;30.10;;;;;;5084032;27;19935;-67
2024/01/29 10:25:55;;;;;;;;;;;25.00;30.10;;;;;;5084059;27;20200;-68
2024/01/29 10:28:23;;;;;;;;;;;25.00;30.20;;;;;;5097063;27;20445;-70
2024/01/29 10:30:49;;;;;;;;;;;25.00;30.20;;;;;;5084700;28;19936;-72
2024/01/29 10:33:15;;;;;;;;;;;25.00;30.20;;;;;;5099689;27;19931;-69
2024/01/29 10:35:40;;;;;;;;;;;25.10;30.20;;;;;;5103159;27;19924;-71
2024/01/29 10:38:07;;;;;;;;;;;25.10;30.10;;;;;;5100487;27;19924;-69
2024/01/29 10:40:33;;;;;;;;;;;25.20;30.10;;;;;;5098793;27;19923;-66
2024/01/29 10:42:59;;;;;;;;;;;25.10;30.20;;;;;;5098664;27;19975;-70
2024/01/29 10:45:25;;;;;;;;;;;24.90;30.60;;;;;;5083613;28;19935;-68
2024/01/29 10:47:53;;;;;;;;;;;24.90;30.80;;;;;;5100354;27;19924;-70
2024/01/29 10:50:19;;;;;;;;;;;24.80;30.90;;;;;;5116190;27;19980;-66
2024/01/29 10:52:46;;;;;;;;;;;24.90;31.10;;;;;;5101563;27;20348;-69
2024/01/29 10:55:13;;;;;;;;;;;24.80;31.20;;;;;;5113138;27;19924;-69
2024/01/29 10:57:39;;;;;;;;;;;24.70;31.30;;;;;;5079955;28;19996;-68
2024/01/29 11:00:07;;;;;;;;;;;24.70;31.50;;;;;;5118601;27;19920;-69
2024/01/29 11:02:32;;;;;;;;;;;24.70;31.60;;;;;;5105532;27;20279;-67
2024/01/29 11:04:58;;;;;;;;;;;24.60;31.70;;;;;;5118388;27;19927;-68
2024/01/29 11:07:25;;;;;;;;;;;24.50;32.00;;;;;;5081146;28;19924;-68
2024/01/29 11:10:09;;;;;;;;;;;24.30;32.20;;;;;;5087650;28;19928;-67
2024/01/29 11:12:35;;;;;;;;;;;24.30;32.60;;;;;;5092810;27;20254;-68
2024/01/29 11:15:03;;;;;;;;;;;24.10;32.90;;;;;;5082499;28;19937;-64
2024/01/29 11:17:29;;;;;;;;;;;24.00;32.90;;;;;;5077181;28;19931;-67
2024/01/29 11:19:58;;;;;;;;;;;23.60;33.20;;;;;;5102489;27;19919;-65
2024/01/29 11:22:33;;;;;;;;;;;23.30;33.60;;;;;;5095903;27;19920;-66
2024/01/29 11:24:58;;;;;;;;;;;23.00;34.10;;;;;;5118800;27;20414;-66
2024/01/29 11:27:29;;;;;;;;;;;22.60;34.50;;;;;;5076278;28;19928;-65
2024/01/29 11:29:54;;;;;;;;;;;22.30;34.80;;;;;;5078479;28;20565;-68
2024/01/29 11:32:20;;;;;;;;;;;22.10;35.30;;;;;;5083430;28;20029;-68
2024/01/29 11:34:47;;;;;;;;;;;21.90;35.50;;;;;;5097756;27;22331;-68
2024/01/29 11:37:23;;;;;;;;;;;21.80;35.80;;;;;;5079556;28;19927;-68
2024/01/29 11:39:50;;;;;;;;;;;21.70;35.90;;;;;;5076789;28;20315;-68
2024/01/29 11:42:16;;;;;;;;;;;21.60;36.10;;;;;;5082508;28;20031;-67
2024/01/29 11:44:42;;;;;;;;;;;21.50;36.30;;;;;;5075441;28;20424;-68
2024/01/29 11:47:08;;;;;;;;;;;21.40;36.40;;;;;;5079318;28;19927;-68
2024/01/29 11:49:34;;;;;;;;;;;21.30;36.70;;;;;;5080814;28;20311;-68
2024/01/29 11:51:59;;;;;;;;;;;21.20;36.70;;;;;;5083018;28;19936;-69
2024/01/29 11:54:25;;;;;;;;;;;21.10;36.80;;;;;;5065764;28;20302;-68
2024/01/29 11:56:51;;;;;;;;;;;21.10;36.90;;;;;;5068818;28;20122;-68
2024/01/29 11:59:16;;;;;;;;;;;21.00;37.10;;;;;;5105224;27;19976;-69
2024/01/29 12:01:43;;;;;;;;;;;20.90;37.10;;;;;;5075425;28;19924;-69
2024/01/29 12:04:10;;;;;;;;;;;20.90;37.30;;;;;;5077713;28;20347;-68
2024/01/29 12:06:35;;;;;;;;;;;21.00;37.90;;;;;;5078531;28;20350;-66
2024/01/29 12:09:01;;;;;;;;;;;21.40;37.70;;;;;;5108638;27;19947;-67
2024/01/29 12:11:27;;;;;;;;;;;21.80;37.20;;;;;;5074875;28;20038;-65
2024/01/29 12:13:55;;;;;;;;;;;22.20;36.60;;;;;;5071668;28;20097;-67
2024/01/29 12:16:22;;;;;;;;;;;22.80;36.20;;;;;;5079791;28;19931;-67
2024/01/29 12:18:48;;;;;;;;;;;23.20;35.50;;;;;;5075909;28;19993;-68
2024/01/29 12:21:20;;;;;;;;;;;23.50;34.90;;;;;;5113033;27;19928;-66
2024/01/29 12:23:45;;;;;;;;;;;23.80;34.50;;;;;;5094849;28;19963;-68
2024/01/29 12:26:13;;;;;;;;;;;24.00;34.40;;;;;;5078647;28;19978;-69
2024/01/29 12:28:39;;;;;;;;;;;24.10;34.30;;;;;;5074934;28;19939;-68
2024/01/29 12:31:09;;;;;;;;;;;24.20;34.00;;;;;;5079566;28;20294;-69
2024/01/29 12:33:36;;;;;;;;;;;24.30;33.90;;;;;;5077882;28;19963;-70
2024/01/29 12:36:17;;;;;;;;;;;24.30;33.80;;;;;;5110875;27;19920;-68
2024/01/29 12:38:44;;;;;;;;;;;24.40;33.90;;;;;;5109706;27;19966;-69
2024/01/29 12:41:10;;;;;;;;;;;24.50;33.70;;;;;;5081912;28;20279;-69
2024/01/29 12:43:36;;;;;;;;;;;24.70;33.50;;;;;;5075168;28;19924;-69
2024/01/29 12:46:05;;;;;;;;;;;24.90;33.30;;;;;;5076189;28;19928;-68
2024/01/29 12:48:31;;;;;;;;;;;25.00;33.10;;;;;;5076054;28;20405;-67
2024/01/29 12:50:59;;;;;;;;;;;25.20;32.90;;;;;;5081577;28;19935;-68
2024/01/29 12:53:25;;;;;;;;;;;25.30;32.80;;;;;;5114965;27;20515;-67
2024/01/29 12:55:50;;;;;;;;;;;25.30;32.70;;;;;;5110879;27;19924;-68
2024/01/29 12:58:16;;;;;;;;;;;25.40;32.70;;;;;;5099884;27;19984;-67
2024/01/29 13:00:43;;;;;;;;;;;25.40;32.70;;;;;;5076699;28;19981;-67
2024/01/29 13:03:10;;;;;;;;;;;25.50;32.70;;;;;;5078054;28;19928;-67
2024/01/29 13:05:36;;;;;;;;;;;25.40;32.70;;;;;;5077328;28;19967;-67
2024/01/29 13:08:01;;;;;;;;;;;25.40;32.80;;;;;;5108983;27;19924;-66
2024/01/29 13:10:29;;;;;;;;;;;25.40;32.80;;;;;;5112687;27;19931;-66
2024/01/29 13:12:55;;;;;;;;;;;25.40;32.80;;;;;;5114747;27;19935;-67
2024/01/29 13:15:21;;;;;;;;;;;25.30;32.90;;;;;;5085055;28;19924;-65
2024/01/29 13:17:47;;;;;;;;;;;25.20;33.00;;;;;;5086744;28;19930;-70
2024/01/29 13:20:12;;;;;;;;;;;25.10;32.90;;;;;;5085705;28;19928;-69
2024/01/29 13:22:38;;;;;;;;;;;24.90;33.10;;;;;;5081408;28;19928;-67
2024/01/29 13:25:06;;;;;;;;;;;24.70;33.50;;;;;;5115662;27;19950;-66
2024/01/29 13:27:32;;;;;;;;;;;24.50;33.70;;;;;;5094529;27;19927;-68
2024/01/29 13:29:57;;;;;;;;;;;24.50;33.80;;;;;;5079695;28;20082;-68
2024/01/29 13:32:26;;;;;;;;;;;24.60;33.90;;;;;;5076945;28;19985;-66
2024/01/29 13:34:51;;;;;;;;;;;24.60;34.00;;;;;;5071285;28;19924;-69
2024/01/29 13:37:17;;;;;;;;;;;24.70;33.90;;;;;;5060380;28;20410;-67
2024/01/29 13:39:43;;;;;;;;;;;24.80;33.80;;;;;;5055735;28;19981;-69
2024/01/29 13:42:08;;;;;;;;;;;24.70;33.90;;;;;;5064823;28;20711;-67
2024/01/29 13:44:34;;;;;;;;;;;24.60;34.10;;;;;;5073801;28;20625;-68
2024/01/29 13:46:59;;;;;;;;;;;24.40;34.30;;;;;;5052318;28;20011;-69
2024/01/29 13:49:26;;;;;;;;;;;24.40;34.60;;;;;;5086538;27;19981;-68
2024/01/29 13:51:52;;;;;;;;;;;24.50;34.60;;;;;;5071250;28;19928;-66
2024/01/29 13:54:18;;;;;;;;;;;24.40;34.60;;;;;;5089080;28;19931;-69
2024/01/29 13:56:46;;;;;;;;;;;24.40;34.70;;;;;;5073722;28;19920;-67
2024/01/29 13:59:12;;;;;;;;;;;24.50;34.90;;;;;;5056392;28;20615;-66
2024/01/29 14:01:38;;;;;;;;;;;24.60;34.80;;;;;;5062001;28;19927;-67
2024/01/29 14:04:04;;;;;;;;;;;24.70;34.70;;;;;;5060580;28;19927;-69
2024/01/29 14:06:29;;;;;;;;;;;24.90;34.50;;;;;;5084083;28;20355;-69
2024/01/29 14:08:55;;;;;;;;;;;25.20;34.40;;;;;;5097319;28;20422;-69